sensor_id;sensor_type;location;lat;lon;timestamp;temperature;humidity
9987;DHT22;5033;46.310;11.214;2022-12-20T00:01:07;1.00;99.90
9987;DHT22;5033;46.310;11.214;2022-12-20T00:03:35;1.00;99.90
9987;DHT22;5033;46.310;11.214;2022-12-20T00:06:03;1.00;99.90
9987;DHT22;5033;46.310;11.214;2022-12-20T00:08:30;1.00;99.90
9987;DHT22;5033;46.310;11.214;2022-12-20T00:11:01;0.90;99.90
9987;DHT22;5033;46.310;11.214;2022-12-20T00:13:29;0.90;99.90
9987;DHT22;5033;46.310;11.214;2022-12-20T00:16:04;0.90;99.90
9987;DHT22;5033;46.310;11.214;2022-12-20T00:18:33;0.90;99.90
9987;DHT22;5033;46.310;11.214;2022-12-20T00:21:01;0.90;99.90
9987;DHT22;5033;46.310;11.214;2022-12-20T00:23:28;0.90;99.90
9987;DHT22;5033;46.310;11.214;2022-12-20T00:26:00;0.90;99.90
9987;DHT22;5033;46.310;11.214;2022-12-20T00:28:27;0.90;99.90
9987;DHT22;5033;46.310;11.214;2022-12-20T00:30:55;0.90;99.90
9987;DHT22;5033;46.310;11.214;2022-12-20T00:33:22;0.90;99.90
9987;DHT22;5033;46.310;11.214;2022-12-20T00:35:51;0.80;99.90
9987;DHT22;5033;46.310;11.214;2022-12-20T00:38:18;0.90;99.90
9987;DHT22;5033;46.310;11.214;2022-12-20T00:40:45;0.90;99.90
9987;DHT22;5033;46.310;11.214;2022-12-20T00:43:12;0.90;99.90
9987;DHT22;5033;46.310;11.214;2022-12-20T00:45:39;1.00;99.90
9987;DHT22;5033;46.310;11.214;2022-12-20T00:48:06;1.00;99.90
9987;DHT22;5033;46.310;11.214;2022-12-20T00:50:34;1.00;99.90
9987;DHT22;5033;46.310;11.214;2022-12-20T00:53:02;1.00;99.90
9987;DHT22;5033;46.310;11.214;2022-12-20T00:55:30;1.00;99.90
9987;DHT22;5033;46.310;11.214;2022-12-20T00:57:57;1.00;99.90
9987;DHT22;5033;46.310;11.214;2022-12-20T01:00:24;1.00;99.90
9987;DHT22;5033;46.310;11.214;2022-12-20T01:02:51;1.00;99.90
9987;DHT22;5033;46.310;11.214;2022-12-20T01:05:18;0.90;99.90
9987;DHT22;5033;46.310;11.214;2022-12-20T01:07:45;0.90;99.90
9987;DHT22;5033;46.310;11.214;2022-12-20T01:10:13;0.80;99.90
9987;DHT22;5033;46.310;11.214;2022-12-20T01:12:40;0.90;99.90
9987;DHT22;5033;46.310;11.214;2022-12-20T01:15:08;0.90;99.90
9987;DHT22;5033;46.310;11.214;2022-12-20T01:17:36;0.80;99.90
9987;DHT22;5033;46.310;11.214;2022-12-20T01:20:03;0.90;99.90
9987;DHT22;5033;46.310;11.214;2022-12-20T01:22:31;0.90;99.90
9987;DHT22;5033;46.310;11.214;2022-12-20T01:24:58;0.80;99.90
9987;DHT22;5033;46.310;11.214;2022-12-20T01:27:27;0.80;99.90
9987;DHT22;5033;46.310;11.214;2022-12-20T01:29:54;0.80;99.90
9987;DHT22;5033;46.310;11.214;2022-12-20T01:32:21;0.70;99.90
9987;DHT22;5033;46.310;11.214;2022-12-20T01:34:48;0.70;99.90
9987;DHT22;5033;46.310;11.214;2022-12-20T01:37:16;0.70;99.90
9987;DHT22;5033;46.310;11.214;2022-12-20T01:39:43;0.60;99.90
9987;DHT22;5033;46.310;11.214;2022-12-20T01:42:13;0.70;99.90
9987;DHT22;5033;46.310;11.214;2022-12-20T01:44:57;0.70;99.90
9987;DHT22;5033;46.310;11.214;2022-12-20T01:47:25;0.70;99.90
9987;DHT22;5033;46.310;11.214;2022-12-20T01:49:55;0.70;99.90
9987;DHT22;5033;46.310;11.214;2022-12-20T01:52:28;0.70;99.90
9987;DHT22;5033;46.310;11.214;2022-12-20T01:55:04;0.80;99.90
9987;DHT22;5033;46.310;11.214;2022-12-20T01:57:37;0.80;99.90
9987;DHT22;5033;46.310;11.214;2022-12-20T02:00:09;0.80;99.90
9987;DHT22;5033;46.310;11.214;2022-12-20T02:02:36;0.80;99.90
9987;DHT22;5033;46.310;11.214;2022-12-20T02:05:04;0.80;99.90
9987;DHT22;5033;46.310;11.214;2022-12-20T02:07:33;0.80;99.90
9987;DHT22;5033;46.310;11.214;2022-12-20T02:10:02;0.90;99.90
9987;DHT22;5033;46.310;11.214;2022-12-20T02:12:33;0.80;99.90
9987;DHT22;5033;46.310;11.214;2022-12-20T02:15:26;0.90;99.90
9987;DHT22;5033;46.310;11.214;2022-12-20T02:18:14;0.90;99.90
9987;DHT22;5033;46.310;11.214;2022-12-20T02:21:06;0.90;99.90
9987;DHT22;5033;46.310;11.214;2022-12-20T02:30:15;0.80;99.90
9987;DHT22;5033;46.310;11.214;2022-12-20T02:32:56;0.80;99.90
9987;DHT22;5033;46.310;11.214;2022-12-20T02:35:27;0.80;99.90
9987;DHT22;5033;46.310;11.214;2022-12-20T02:37:58;0.80;99.90
9987;DHT22;5033;46.310;11.214;2022-12-20T02:40:29;0.80;99.90
9987;DHT22;5033;46.310;11.214;2022-12-20T02:43:01;0.80;99.90
9987;DHT22;5033;46.310;11.214;2022-12-20T02:45:32;0.80;99.90
9987;DHT22;5033;46.310;11.214;2022-12-20T02:48:04;0.80;99.90
9987;DHT22;5033;46.310;11.214;2022-12-20T02:50:35;0.80;99.90
9987;DHT22;5033;46.310;11.214;2022-12-20T02:53:03;0.80;99.90
9987;DHT22;5033;46.310;11.214;2022-12-20T02:55:38;0.80;99.90
9987;DHT22;5033;46.310;11.214;2022-12-20T02:58:12;0.70;99.90
9987;DHT22;5033;46.310;11.214;2022-12-20T03:00:45;0.70;99.90
9987;DHT22;5033;46.310;11.214;2022-12-20T03:03:13;0.70;99.90
9987;DHT22;5033;46.310;11.214;2022-12-20T03:05:51;0.70;99.90
9987;DHT22;5033;46.310;11.214;2022-12-20T03:08:19;0.70;99.90
9987;DHT22;5033;46.310;11.214;2022-12-20T03:10:47;0.70;99.90
9987;DHT22;5033;46.310;11.214;2022-12-20T03:13:14;0.70;99.90
9987;DHT22;5033;46.310;11.214;2022-12-20T03:15:43;0.70;99.90
9987;DHT22;5033;46.310;11.214;2022-12-20T03:18:10;0.60;99.90
9987;DHT22;5033;46.310;11.214;2022-12-20T03:20:38;0.60;99.90
9987;DHT22;5033;46.310;11.214;2022-12-20T03:23:05;0.60;99.90
9987;DHT22;5033;46.310;11.214;2022-12-20T03:25:32;0.60;99.90
9987;DHT22;5033;46.310;11.214;2022-12-20T03:27:59;0.60;99.90
9987;DHT22;5033;46.310;11.214;2022-12-20T03:30:26;0.60;99.90
9987;DHT22;5033;46.310;11.214;2022-12-20T03:32:55;0.60;99.90
9987;DHT22;5033;46.310;11.214;2022-12-20T03:35:23;0.60;99.90
9987;DHT22;5033;46.310;11.214;2022-12-20T03:37:50;0.60;99.90
9987;DHT22;5033;46.310;11.214;2022-12-20T03:40:17;0.60;99.90
9987;DHT22;5033;46.310;11.214;2022-12-20T03:42:44;0.50;99.90
9987;DHT22;5033;46.310;11.214;2022-12-20T03:45:11;0.50;99.90
9987;DHT22;5033;46.310;11.214;2022-12-20T03:47:38;0.50;99.90
9987;DHT22;5033;46.310;11.214;2022-12-20T03:50:08;0.40;99.90
9987;DHT22;5033;46.310;11.214;2022-12-20T03:52:35;0.50;99.90
9987;DHT22;5033;46.310;11.214;2022-12-20T03:55:03;0.40;99.90
9987;DHT22;5033;46.310;11.214;2022-12-20T03:57:30;0.50;99.90
9987;DHT22;5033;46.310;11.214;2022-12-20T03:59:57;0.50;99.90
9987;DHT22;5033;46.310;11.214;2022-12-20T04:02:24;0.50;99.90
9987;DHT22;5033;46.310;11.214;2022-12-20T04:04:51;0.50;99.90
9987;DHT22;5033;46.310;11.214;2022-12-20T04:07:20;0.50;99.90
9987;DHT22;5033;46.310;11.214;2022-12-20T04:09:47;0.50;99.90
9987;DHT22;5033;46.310;11.214;2022-12-20T04:12:14;0.50;99.90
9987;DHT22;5033;46.310;11.214;2022-12-20T04:14:41;0.50;99.90
9987;DHT22;5033;46.310;11.214;2022-12-20T04:17:08;0.50;99.90
9987;DHT22;5033;46.310;11.214;2022-12-20T04:19:35;0.50;99.90
9987;DHT22;5033;46.310;11.214;2022-12-20T04:22:02;0.50;99.90
9987;DHT22;5033;46.310;11.214;2022-12-20T04:24:31;0.50;99.90
9987;DHT22;5033;46.310;11.214;2022-12-20T04:26:58;0.50;99.90
9987;DHT22;5033;46.310;11.214;2022-12-20T04:29:25;0.50;99.90
9987;DHT22;5033;46.310;11.214;2022-12-20T04:31:52;0.50;99.90
9987;DHT22;5033;46.310;11.214;2022-12-20T04:34:19;0.50;99.90
9987;DHT22;5033;46.310;11.214;2022-12-20T04:36:46;0.50;99.90
9987;DHT22;5033;46.310;11.214;2022-12-20T04:39:13;0.50;99.90
9987;DHT22;5033;46.310;11.214;2022-12-20T04:41:42;0.50;99.90
9987;DHT22;5033;46.310;11.214;2022-12-20T04:44:09;0.50;99.90
9987;DHT22;5033;46.310;11.214;2022-12-20T04:46:36;0.50;99.90
9987;DHT22;5033;46.310;11.214;2022-12-20T04:49:03;0.50;99.90
9987;DHT22;5033;46.310;11.214;2022-12-20T04:51:30;0.60;99.90
9987;DHT22;5033;46.310;11.214;2022-12-20T04:53:57;0.60;99.90
9987;DHT22;5033;46.310;11.214;2022-12-20T04:56:25;0.60;99.90
9987;DHT22;5033;46.310;11.214;2022-12-20T04:58:56;0.60;99.90
9987;DHT22;5033;46.310;11.214;2022-12-20T05:01:23;0.50;99.90
9987;DHT22;5033;46.310;11.214;2022-12-20T05:03:51;0.50;99.90
9987;DHT22;5033;46.310;11.214;2022-12-20T05:06:24;0.50;99.90
9987;DHT22;5033;46.310;11.214;2022-12-20T05:08:51;0.50;99.90
9987;DHT22;5033;46.310;11.214;2022-12-20T05:11:19;0.50;99.90
9987;DHT22;5033;46.310;11.214;2022-12-20T05:13:46;0.40;99.90
9987;DHT22;5033;46.310;11.214;2022-12-20T05:16:15;0.40;99.90
9987;DHT22;5033;46.310;11.214;2022-12-20T05:18:42;0.40;99.90
9987;DHT22;5033;46.310;11.214;2022-12-20T05:21:09;0.40;99.90
9987;DHT22;5033;46.310;11.214;2022-12-20T05:23:53;0.40;99.90
9987;DHT22;5033;46.310;11.214;2022-12-20T05:26:38;0.40;99.90
9987;DHT22;5033;46.310;11.214;2022-12-20T05:29:05;0.40;99.90
9987;DHT22;5033;46.310;11.214;2022-12-20T05:31:34;0.40;99.90
9987;DHT22;5033;46.310;11.214;2022-12-20T05:34:01;0.40;99.90
9987;DHT22;5033;46.310;11.214;2022-12-20T05:36:28;0.30;99.90
9987;DHT22;5033;46.310;11.214;2022-12-20T05:38:55;0.40;99.90
9987;DHT22;5033;46.310;11.214;2022-12-20T05:41:22;0.40;99.90
9987;DHT22;5033;46.310;11.214;2022-12-20T05:43:49;0.40;99.90
9987;DHT22;5033;46.310;11.214;2022-12-20T05:46:17;0.40;99.90
9987;DHT22;5033;46.310;11.214;2022-12-20T05:48:45;0.40;99.90
9987;DHT22;5033;46.310;11.214;2022-12-20T05:51:13;0.40;99.90
9987;DHT22;5033;46.310;11.214;2022-12-20T05:53:40;0.40;99.90
9987;DHT22;5033;46.310;11.214;2022-12-20T05:56:07;0.40;99.90
9987;DHT22;5033;46.310;11.214;2022-12-20T05:58:34;0.40;99.90
9987;DHT22;5033;46.310;11.214;2022-12-20T06:01:02;0.40;99.90
9987;DHT22;5033;46.310;11.214;2022-12-20T06:03:30;0.40;99.90
9987;DHT22;5033;46.310;11.214;2022-12-20T06:05:58;0.40;99.90
9987;DHT22;5033;46.310;11.214;2022-12-20T06:08:25;0.40;99.90
9987;DHT22;5033;46.310;11.214;2022-12-20T06:10:53;0.40;99.90
9987;DHT22;5033;46.310;11.214;2022-12-20T06:13:20;0.40;99.90
9987;DHT22;5033;46.310;11.214;2022-12-20T06:15:47;0.30;99.90
9987;DHT22;5033;46.310;11.214;2022-12-20T06:18:14;0.30;99.90
9987;DHT22;5033;46.310;11.214;2022-12-20T06:20:41;0.30;99.90
9987;DHT22;5033;46.310;11.214;2022-12-20T06:23:10;0.30;99.90
9987;DHT22;5033;46.310;11.214;2022-12-20T06:25:37;0.40;99.90
9987;DHT22;5033;46.310;11.214;2022-12-20T06:28:04;0.40;99.90
9987;DHT22;5033;46.310;11.214;2022-12-20T06:30:32;0.40;99.90
9987;DHT22;5033;46.310;11.214;2022-12-20T06:32:59;0.40;99.90
9987;DHT22;5033;46.310;11.214;2022-12-20T06:35:27;0.40;99.90
9987;DHT22;5033;46.310;11.214;2022-12-20T06:37:54;0.40;99.90
9987;DHT22;5033;46.310;11.214;2022-12-20T06:40:23;0.40;99.90
9987;DHT22;5033;46.310;11.214;2022-12-20T06:42:50;0.40;99.90
9987;DHT22;5033;46.310;11.214;2022-12-20T06:45:17;0.40;99.90
9987;DHT22;5033;46.310;11.214;2022-12-20T06:47:44;0.50;99.90
9987;DHT22;5033;46.310;11.214;2022-12-20T06:50:11;0.40;99.90
9987;DHT22;5033;46.310;11.214;2022-12-20T06:52:38;0.40;99.90
9987;DHT22;5033;46.310;11.214;2022-12-20T06:55:06;0.50;99.90
9987;DHT22;5033;46.310;11.214;2022-12-20T06:57:35;0.50;99.90
9987;DHT22;5033;46.310;11.214;2022-12-20T07:00:04;0.50;99.90
9987;DHT22;5033;46.310;11.214;2022-12-20T07:02:33;0.50;99.90
9987;DHT22;5033;46.310;11.214;2022-12-20T07:05:00;0.50;99.90
9987;DHT22;5033;46.310;11.214;2022-12-20T07:07:27;0.50;99.90
9987;DHT22;5033;46.310;11.214;2022-12-20T07:09:54;0.50;99.90
9987;DHT22;5033;46.310;11.214;2022-12-20T07:12:21;0.50;99.90
9987;DHT22;5033;46.310;11.214;2022-12-20T07:14:50;0.50;99.90
9987;DHT22;5033;46.310;11.214;2022-12-20T07:17:17;0.50;99.90
9987;DHT22;5033;46.310;11.214;2022-12-20T07:19:44;0.50;99.90
9987;DHT22;5033;46.310;11.214;2022-12-20T07:22:12;0.50;99.90
9987;DHT22;5033;46.310;11.214;2022-12-20T07:24:39;0.50;99.90
9987;DHT22;5033;46.310;11.214;2022-12-20T07:27:06;0.60;99.90
9987;DHT22;5033;46.310;11.214;2022-12-20T07:29:33;0.60;99.90
9987;DHT22;5033;46.310;11.214;2022-12-20T07:32:02;0.70;99.90
9987;DHT22;5033;46.310;11.214;2022-12-20T07:34:29;0.80;99.90
9987;DHT22;5033;46.310;11.214;2022-12-20T07:36:56;0.80;99.90
9987;DHT22;5033;46.310;11.214;2022-12-20T07:39:23;0.90;99.90
9987;DHT22;5033;46.310;11.214;2022-12-20T07:41:52;1.10;99.90
9987;DHT22;5033;46.310;11.214;2022-12-20T07:44:19;1.70;99.90
9987;DHT22;5033;46.310;11.214;2022-12-20T07:46:47;2.20;99.90
9987;DHT22;5033;46.310;11.214;2022-12-20T07:49:15;2.20;99.90
9987;DHT22;5033;46.310;11.214;2022-12-20T07:51:46;2.10;99.90
9987;DHT22;5033;46.310;11.214;2022-12-20T07:54:17;2.00;99.90
9987;DHT22;5033;46.310;11.214;2022-12-20T07:56:47;2.00;99.90
9987;DHT22;5033;46.310;11.214;2022-12-20T07:59:19;1.90;99.90
9987;DHT22;5033;46.310;11.214;2022-12-20T08:01:47;1.90;99.90
9987;DHT22;5033;46.310;11.214;2022-12-20T08:04:19;1.90;99.90
9987;DHT22;5033;46.310;11.214;2022-12-20T08:06:47;2.10;99.90
9987;DHT22;5033;46.310;11.214;2022-12-20T08:09:15;2.10;99.90
9987;DHT22;5033;46.310;11.214;2022-12-20T08:11:45;2.20;99.90
9987;DHT22;5033;46.310;11.214;2022-12-20T08:14:13;2.20;99.90
9987;DHT22;5033;46.310;11.214;2022-12-20T08:17:01;2.30;99.90
9987;DHT22;5033;46.310;11.214;2022-12-20T08:19:30;2.30;99.90
9987;DHT22;5033;46.310;11.214;2022-12-20T08:21:57;2.40;99.90
9987;DHT22;5033;46.310;11.214;2022-12-20T08:24:24;2.40;99.90
9987;DHT22;5033;46.310;11.214;2022-12-20T08:26:51;2.40;99.90
9987;DHT22;5033;46.310;11.214;2022-12-20T08:29:18;2.40;99.90
9987;DHT22;5033;46.310;11.214;2022-12-20T08:31:45;2.40;99.90
9987;DHT22;5033;46.310;11.214;2022-12-20T08:34:12;2.40;99.90
9987;DHT22;5033;46.310;11.214;2022-12-20T08:36:41;2.40;99.90
9987;DHT22;5033;46.310;11.214;2022-12-20T08:39:08;2.40;99.90
9987;DHT22;5033;46.310;11.214;2022-12-20T08:41:36;2.40;99.90
9987;DHT22;5033;46.310;11.214;2022-12-20T08:44:03;2.50;99.90
9987;DHT22;5033;46.310;11.214;2022-12-20T08:46:31;2.50;99.90
9987;DHT22;5033;46.310;11.214;2022-12-20T08:48:58;2.60;99.90
9987;DHT22;5033;46.310;11.214;2022-12-20T08:51:25;2.70;99.90
9987;DHT22;5033;46.310;11.214;2022-12-20T08:53:53;2.90;99.90
9987;DHT22;5033;46.310;11.214;2022-12-20T08:56:20;3.00;99.90
9987;DHT22;5033;46.310;11.214;2022-12-20T08:58:48;3.00;99.90
9987;DHT22;5033;46.310;11.214;2022-12-20T09:01:17;3.00;99.90
9987;DHT22;5033;46.310;11.214;2022-12-20T09:03:46;3.10;99.90
9987;DHT22;5033;46.310;11.214;2022-12-20T09:06:15;3.00;99.90
9987;DHT22;5033;46.310;11.214;2022-12-20T09:08:43;3.10;99.90
9987;DHT22;5033;46.310;11.214;2022-12-20T09:11:14;3.30;99.90
9987;DHT22;5033;46.310;11.214;2022-12-20T09:13:43;3.80;99.90
9987;DHT22;5033;46.310;11.214;2022-12-20T09:16:15;4.70;99.90
9987;DHT22;5033;46.310;11.214;2022-12-20T09:18:43;5.50;99.90
9987;DHT22;5033;46.310;11.214;2022-12-20T09:21:10;6.30;99.90
9987;DHT22;5033;46.310;11.214;2022-12-20T09:23:38;6.90;99.90
9987;DHT22;5033;46.310;11.214;2022-12-20T09:26:07;7.00;99.90
9987;DHT22;5033;46.310;11.214;2022-12-20T09:28:37;7.30;99.90
9987;DHT22;5033;46.310;11.214;2022-12-20T09:31:06;7.50;99.90
9987;DHT22;5033;46.310;11.214;2022-12-20T09:33:34;7.40;99.90
9987;DHT22;5033;46.310;11.214;2022-12-20T09:36:01;7.40;99.90
9987;DHT22;5033;46.310;11.214;2022-12-20T09:38:30;7.60;99.90
9987;DHT22;5033;46.310;11.214;2022-12-20T09:40:59;8.10;99.90
9987;DHT22;5033;46.310;11.214;2022-12-20T09:43:27;8.50;99.90
9987;DHT22;5033;46.310;11.214;2022-12-20T09:46:01;9.40;99.90
9987;DHT22;5033;46.310;11.214;2022-12-20T09:48:32;10.10;99.90
9987;DHT22;5033;46.310;11.214;2022-12-20T09:51:06;10.40;99.90
9987;DHT22;5033;46.310;11.214;2022-12-20T09:53:47;10.20;99.90
9987;DHT22;5033;46.310;11.214;2022-12-20T09:56:22;9.80;99.90
9987;DHT22;5033;46.310;11.214;2022-12-20T09:59:00;9.20;99.90
9987;DHT22;5033;46.310;11.214;2022-12-20T10:01:31;8.40;99.90
9987;DHT22;5033;46.310;11.214;2022-12-20T10:04:03;7.70;99.90
9987;DHT22;5033;46.310;11.214;2022-12-20T10:06:39;7.20;99.90
9987;DHT22;5033;46.310;11.214;2022-12-20T10:09:12;6.70;99.90
9987;DHT22;5033;46.310;11.214;2022-12-20T10:11:54;6.30;99.90
9987;DHT22;5033;46.310;11.214;2022-12-20T10:14:43;6.10;99.90
9987;DHT22;5033;46.310;11.214;2022-12-20T10:17:16;6.00;99.90
9987;DHT22;5033;46.310;11.214;2022-12-20T10:20:03;5.90;99.90
9987;DHT22;5033;46.310;11.214;2022-12-20T10:22:37;5.80;99.90
9987;DHT22;5033;46.310;11.214;2022-12-20T10:25:15;5.80;99.90
9987;DHT22;5033;46.310;11.214;2022-12-20T10:27:44;5.90;99.90
9987;DHT22;5033;46.310;11.214;2022-12-20T10:30:17;5.90;99.90
9987;DHT22;5033;46.310;11.214;2022-12-20T10:32:47;5.70;99.90
9987;DHT22;5033;46.310;11.214;2022-12-20T10:35:21;5.60;99.90
9987;DHT22;5033;46.310;11.214;2022-12-20T10:38:00;5.60;99.90
9987;DHT22;5033;46.310;11.214;2022-12-20T10:40:29;5.80;99.90
9987;DHT22;5033;46.310;11.214;2022-12-20T10:42:57;6.00;99.90
9987;DHT22;5033;46.310;11.214;2022-12-20T10:45:43;6.50;99.90
9987;DHT22;5033;46.310;11.214;2022-12-20T10:48:27;6.80;99.90
9987;DHT22;5033;46.310;11.214;2022-12-20T10:50:56;7.00;99.90
9987;DHT22;5033;46.310;11.214;2022-12-20T10:53:25;7.20;99.90
9987;DHT22;5033;46.310;11.214;2022-12-20T10:55:54;7.50;99.90
9987;DHT22;5033;46.310;11.214;2022-12-20T10:58:35;7.60;99.90
9987;DHT22;5033;46.310;11.214;2022-12-20T11:01:05;7.50;99.90
9987;DHT22;5033;46.310;11.214;2022-12-20T11:03:49;7.50;99.90
9987;DHT22;5033;46.310;11.214;2022-12-20T11:06:18;7.40;99.90
9987;DHT22;5033;46.310;11.214;2022-12-20T11:08:45;7.30;99.90
9987;DHT22;5033;46.310;11.214;2022-12-20T11:11:16;7.30;99.90
9987;DHT22;5033;46.310;11.214;2022-12-20T11:13:44;7.50;99.90
9987;DHT22;5033;46.310;11.214;2022-12-20T11:16:28;7.60;99.90
9987;DHT22;5033;46.310;11.214;2022-12-20T11:19:23;7.70;99.90
9987;DHT22;5033;46.310;11.214;2022-12-20T11:21:59;7.60;99.90
9987;DHT22;5033;46.310;11.214;2022-12-20T11:24:32;7.50;99.90
9987;DHT22;5033;46.310;11.214;2022-12-20T11:27:12;7.60;99.90
9987;DHT22;5033;46.310;11.214;2022-12-20T11:30:02;7.50;99.90
9987;DHT22;5033;46.310;11.214;2022-12-20T11:32:49;7.40;99.90
9987;DHT22;5033;46.310;11.214;2022-12-20T11:35:29;7.10;99.90
9987;DHT22;5033;46.310;11.214;2022-12-20T11:38:04;6.70;99.90
9987;DHT22;5033;46.310;11.214;2022-12-20T11:40:36;6.50;99.90
9987;DHT22;5033;46.310;11.214;2022-12-20T11:43:21;6.20;99.90
9987;DHT22;5033;46.310;11.214;2022-12-20T11:46:03;6.00;99.90
9987;DHT22;5033;46.310;11.214;2022-12-20T11:48:47;5.80;99.90
9987;DHT22;5033;46.310;11.214;2022-12-20T11:51:23;5.80;99.90
9987;DHT22;5033;46.310;11.214;2022-12-20T11:53:54;6.00;99.90
9987;DHT22;5033;46.310;11.214;2022-12-20T11:56:26;6.20;99.90
9987;DHT22;5033;46.310;11.214;2022-12-20T11:59:00;6.30;99.90
9987;DHT22;5033;46.310;11.214;2022-12-20T12:01:32;6.60;99.90
9987;DHT22;5033;46.310;11.214;2022-12-20T12:04:06;6.70;99.90
9987;DHT22;5033;46.310;11.214;2022-12-20T12:06:38;6.90;99.90
9987;DHT22;5033;46.310;11.214;2022-12-20T12:09:14;7.00;99.90
9987;DHT22;5033;46.310;11.214;2022-12-20T12:11:47;7.20;99.90
9987;DHT22;5033;46.310;11.214;2022-12-20T12:14:22;7.40;99.90
9987;DHT22;5033;46.310;11.214;2022-12-20T12:16:58;7.50;99.90
9987;DHT22;5033;46.310;11.214;2022-12-20T12:19:27;7.30;99.90
9987;DHT22;5033;46.310;11.214;2022-12-20T12:22:00;7.30;99.90
9987;DHT22;5033;46.310;11.214;2022-12-20T12:24:32;7.20;99.90
9987;DHT22;5033;46.310;11.214;2022-12-20T12:27:01;7.20;99.90
9987;DHT22;5033;46.310;11.214;2022-12-20T12:29:29;7.10;99.90
9987;DHT22;5033;46.310;11.214;2022-12-20T12:32:01;7.00;99.90
9987;DHT22;5033;46.310;11.214;2022-12-20T12:34:37;6.80;99.90
9987;DHT22;5033;46.310;11.214;2022-12-20T12:40:32;6.20;99.90
9987;DHT22;5033;46.310;11.214;2022-12-20T12:45:59;6.00;99.90
9987;DHT22;5033;46.310;11.214;2022-12-20T12:48:37;6.00;99.90
9987;DHT22;5033;46.310;11.214;2022-12-20T12:51:06;5.90;99.90
9987;DHT22;5033;46.310;11.214;2022-12-20T12:53:36;5.90;99.90
9987;DHT22;5033;46.310;11.214;2022-12-20T12:56:37;5.90;99.90
9987;DHT22;5033;46.310;11.214;2022-12-20T12:59:18;5.80;99.90
9987;DHT22;5033;46.310;11.214;2022-12-20T13:01:47;6.00;99.90
9987;DHT22;5033;46.310;11.214;2022-12-20T13:04:24;6.30;99.90
9987;DHT22;5033;46.310;11.214;2022-12-20T13:07:02;6.40;99.90
9987;DHT22;5033;46.310;11.214;2022-12-20T13:09:48;6.40;99.90
9987;DHT22;5033;46.310;11.214;2022-12-20T13:12:55;6.40;99.90
9987;DHT22;5033;46.310;11.214;2022-12-20T13:15:46;6.20;99.90
9987;DHT22;5033;46.310;11.214;2022-12-20T13:18:24;6.20;99.90
9987;DHT22;5033;46.310;11.214;2022-12-20T13:21:16;6.20;99.90
9987;DHT22;5033;46.310;11.214;2022-12-20T13:23:44;6.10;99.90
9987;DHT22;5033;46.310;11.214;2022-12-20T13:26:48;6.00;99.90
9987;DHT22;5033;46.310;11.214;2022-12-20T13:29:23;5.90;99.90
9987;DHT22;5033;46.310;11.214;2022-12-20T13:31:51;6.00;99.90
9987;DHT22;5033;46.310;11.214;2022-12-20T13:34:36;6.30;99.90
9987;DHT22;5033;46.310;11.214;2022-12-20T13:37:25;6.50;99.90
9987;DHT22;5033;46.310;11.214;2022-12-20T13:39:52;6.50;99.90
9987;DHT22;5033;46.310;11.214;2022-12-20T13:42:33;6.50;99.90
9987;DHT22;5033;46.310;11.214;2022-12-20T13:45:04;6.30;99.90
9987;DHT22;5033;46.310;11.214;2022-12-20T13:47:44;6.10;99.90
9987;DHT22;5033;46.310;11.214;2022-12-20T13:50:30;5.90;99.90
9987;DHT22;5033;46.310;11.214;2022-12-20T13:53:00;5.50;99.90
9987;DHT22;5033;46.310;11.214;2022-12-20T13:55:33;5.40;99.90
9987;DHT22;5033;46.310;11.214;2022-12-20T13:58:09;5.30;99.90
9987;DHT22;5033;46.310;11.214;2022-12-20T14:00:37;5.10;99.90
9987;DHT22;5033;46.310;11.214;2022-12-20T14:03:10;5.00;99.90
9987;DHT22;5033;46.310;11.214;2022-12-20T14:05:39;4.90;99.90
9987;DHT22;5033;46.310;11.214;2022-12-20T14:08:12;4.80;99.90
9987;DHT22;5033;46.310;11.214;2022-12-20T14:10:40;4.80;99.90
9987;DHT22;5033;46.310;11.214;2022-12-20T14:13:20;4.70;99.90
9987;DHT22;5033;46.310;11.214;2022-12-20T14:15:47;4.70;99.90
9987;DHT22;5033;46.310;11.214;2022-12-20T14:18:19;4.70;99.90
9987;DHT22;5033;46.310;11.214;2022-12-20T14:20:49;4.70;99.90
9987;DHT22;5033;46.310;11.214;2022-12-20T14:23:19;4.60;99.90
9987;DHT22;5033;46.310;11.214;2022-12-20T14:25:50;4.50;99.90
9987;DHT22;5033;46.310;11.214;2022-12-20T14:28:30;4.50;99.90
9987;DHT22;5033;46.310;11.214;2022-12-20T14:31:02;4.40;99.90
9987;DHT22;5033;46.310;11.214;2022-12-20T14:33:32;4.40;99.90
9987;DHT22;5033;46.310;11.214;2022-12-20T14:36:16;4.40;99.90
9987;DHT22;5033;46.310;11.214;2022-12-20T14:38:45;4.30;99.90
9987;DHT22;5033;46.310;11.214;2022-12-20T14:41:30;4.20;99.90
9987;DHT22;5033;46.310;11.214;2022-12-20T14:44:01;4.10;99.90
9987;DHT22;5033;46.310;11.214;2022-12-20T14:46:29;4.10;99.90
9987;DHT22;5033;46.310;11.214;2022-12-20T14:49:17;4.00;99.90
9987;DHT22;5033;46.310;11.214;2022-12-20T14:51:46;3.90;99.90
9987;DHT22;5033;46.310;11.214;2022-12-20T14:54:16;3.80;99.90
9987;DHT22;5033;46.310;11.214;2022-12-20T14:56:45;3.80;99.90
9987;DHT22;5033;46.310;11.214;2022-12-20T14:59:15;3.80;99.90
9987;DHT22;5033;46.310;11.214;2022-12-20T15:01:43;3.70;99.90
9987;DHT22;5033;46.310;11.214;2022-12-20T15:04:21;3.80;99.90
9987;DHT22;5033;46.310;11.214;2022-12-20T15:06:49;3.70;99.90
9987;DHT22;5033;46.310;11.214;2022-12-20T15:09:17;3.70;99.90
9987;DHT22;5033;46.310;11.214;2022-12-20T15:11:45;3.60;99.90
9987;DHT22;5033;46.310;11.214;2022-12-20T15:14:21;3.50;99.90
9987;DHT22;5033;46.310;11.214;2022-12-20T15:16:49;3.50;99.90
9987;DHT22;5033;46.310;11.214;2022-12-20T15:19:17;3.50;99.90
9987;DHT22;5033;46.310;11.214;2022-12-20T15:21:44;3.40;99.90
9987;DHT22;5033;46.310;11.214;2022-12-20T15:24:13;3.30;99.90
9987;DHT22;5033;46.310;11.214;2022-12-20T15:26:41;3.30;99.90
9987;DHT22;5033;46.310;11.214;2022-12-20T15:29:12;3.20;99.90
9987;DHT22;5033;46.310;11.214;2022-12-20T15:31:42;3.20;99.90
9987;DHT22;5033;46.310;11.214;2022-12-20T15:34:13;3.20;99.90
9987;DHT22;5033;46.310;11.214;2022-12-20T15:36:41;3.20;99.90
9987;DHT22;5033;46.310;11.214;2022-12-20T15:39:10;3.20;99.90
9987;DHT22;5033;46.310;11.214;2022-12-20T15:41:39;3.10;99.90
9987;DHT22;5033;46.310;11.214;2022-12-20T15:44:12;3.10;99.90
9987;DHT22;5033;46.310;11.214;2022-12-20T15:46:39;3.10;99.90
9987;DHT22;5033;46.310;11.214;2022-12-20T15:49:13;3.10;99.90
9987;DHT22;5033;46.310;11.214;2022-12-20T15:51:40;3.10;99.90
9987;DHT22;5033;46.310;11.214;2022-12-20T15:54:17;3.10;99.90
9987;DHT22;5033;46.310;11.214;2022-12-20T15:56:46;3.10;99.90
9987;DHT22;5033;46.310;11.214;2022-12-20T15:59:13;3.10;99.90
9987;DHT22;5033;46.310;11.214;2022-12-20T16:01:40;3.00;99.90
9987;DHT22;5033;46.310;11.214;2022-12-20T16:04:13;3.00;99.90
9987;DHT22;5033;46.310;11.214;2022-12-20T16:06:41;3.00;99.90
9987;DHT22;5033;46.310;11.214;2022-12-20T16:09:09;2.90;99.90
9987;DHT22;5033;46.310;11.214;2022-12-20T16:11:36;2.90;99.90
9987;DHT22;5033;46.310;11.214;2022-12-20T16:14:04;2.90;99.90
9987;DHT22;5033;46.310;11.214;2022-12-20T16:16:33;2.90;99.90
9987;DHT22;5033;46.310;11.214;2022-12-20T16:19:01;2.80;99.90
9987;DHT22;5033;46.310;11.214;2022-12-20T16:21:33;2.80;99.90
9987;DHT22;5033;46.310;11.214;2022-12-20T16:24:01;2.70;99.90
9987;DHT22;5033;46.310;11.214;2022-12-20T16:26:29;2.70;99.90
9987;DHT22;5033;46.310;11.214;2022-12-20T16:28:56;2.70;99.90
9987;DHT22;5033;46.310;11.214;2022-12-20T16:31:27;2.80;99.90
9987;DHT22;5033;46.310;11.214;2022-12-20T16:33:56;2.70;99.90
9987;DHT22;5033;46.310;11.214;2022-12-20T16:36:23;2.80;99.90
9987;DHT22;5033;46.310;11.214;2022-12-20T16:38:52;2.70;99.90